Eucla Motel, Australia
Current Conditions -  °F | °C
As of 8:00 PM on Sunday 25 Jan 2015 (Local Time) from YCDU Reporting Station
Scattered Clouds Scattered Clouds  
Wind Chill: 63°   Ceiling: Unl
Heat Index: 63°   Visibility: 6mi
Dew Point: 46°   Wind: 13mph
Humidity: 55%   Direction: 160°SSE
Pressure: 30.06"   Gusts: NA
Location:  31.68°S, 128.88°E
Report Text: YCDU 251200Z AUTO 16011KT 9999 // SCT038 17/08 Q1018
Loading
Personal Weather Stations






























Interactive Weather Map New forecast layout! Learn more

10-Day Weather Forecast

Advertisements
Track Severe Weather on mobile